sensor_id;sensor_type;location;lat;lon;timestamp;temperature;humidity
23114;DHT22;11726;50.122;8.832;2023-05-10T00:02:00;15.10;99.90
23114;DHT22;11726;50.122;8.832;2023-05-10T00:04:27;15.10;99.90
23114;DHT22;11726;50.122;8.832;2023-05-10T00:06:54;14.90;99.90
23114;DHT22;11726;50.122;8.832;2023-05-10T00:09:21;14.70;99.90
23114;DHT22;11726;50.122;8.832;2023-05-10T00:11:47;14.60;99.90
23114;DHT22;11726;50.122;8.832;2023-05-10T00:14:14;14.70;99.90
23114;DHT22;11726;50.122;8.832;2023-05-10T00:16:40;14.70;99.90
23114;DHT22;11726;50.122;8.832;2023-05-10T00:19:08;14.70;99.90
23114;DHT22;11726;50.122;8.832;2023-05-10T00:21:35;14.60;99.90
23114;DHT22;11726;50.122;8.832;2023-05-10T00:24:01;14.50;99.90
23114;DHT22;11726;50.122;8.832;2023-05-10T00:26:28;14.40;99.90
23114;DHT22;11726;50.122;8.832;2023-05-10T00:28:54;14.30;99.90
23114;DHT22;11726;50.122;8.832;2023-05-10T00:31:21;14.40;99.90
23114;DHT22;11726;50.122;8.832;2023-05-10T00:33:48;14.30;99.90
23114;DHT22;11726;50.122;8.832;2023-05-10T00:36:14;14.30;99.90
23114;DHT22;11726;50.122;8.832;2023-05-10T00:38:41;14.30;99.90
23114;DHT22;11726;50.122;8.832;2023-05-10T00:41:08;14.30;99.90
23114;DHT22;11726;50.122;8.832;2023-05-10T00:43:35;14.30;99.90
23114;DHT22;11726;50.122;8.832;2023-05-10T00:46:03;14.30;99.90
23114;DHT22;11726;50.122;8.832;2023-05-10T00:48:30;14.30;99.90
23114;DHT22;11726;50.122;8.832;2023-05-10T00:50:56;14.20;99.90
23114;DHT22;11726;50.122;8.832;2023-05-10T00:53:23;14.20;99.90
23114;DHT22;11726;50.122;8.832;2023-05-10T00:55:50;14.20;99.90
23114;DHT22;11726;50.122;8.832;2023-05-10T00:58:17;14.10;99.90
23114;DHT22;11726;50.122;8.832;2023-05-10T01:00:45;14.10;99.90
23114;DHT22;11726;50.122;8.832;2023-05-10T01:03:12;14.10;99.90
23114;DHT22;11726;50.122;8.832;2023-05-10T01:05:39;14.00;99.90
23114;DHT22;11726;50.122;8.832;2023-05-10T01:08:06;14.00;99.90
23114;DHT22;11726;50.122;8.832;2023-05-10T01:10:33;14.00;99.90
23114;DHT22;11726;50.122;8.832;2023-05-10T01:13:00;14.00;99.90
23114;DHT22;11726;50.122;8.832;2023-05-10T01:15:27;14.00;99.90
23114;DHT22;11726;50.122;8.832;2023-05-10T01:17:53;14.00;99.90
23114;DHT22;11726;50.122;8.832;2023-05-10T01:20:20;14.00;99.90
23114;DHT22;11726;50.122;8.832;2023-05-10T01:23:08;14.00;99.90
23114;DHT22;11726;50.122;8.832;2023-05-10T01:26:04;13.90;99.90
23114;DHT22;11726;50.122;8.832;2023-05-10T01:34:29;13.80;99.90
23114;DHT22;11726;50.122;8.832;2023-05-10T01:37:07;13.70;99.90
23114;DHT22;11726;50.122;8.832;2023-05-10T01:39:47;13.70;99.90
23114;DHT22;11726;50.122;8.832;2023-05-10T01:42:25;13.70;99.90
23114;DHT22;11726;50.122;8.832;2023-05-10T01:45:13;13.70;99.90
23114;DHT22;11726;50.122;8.832;2023-05-10T01:47:46;13.70;99.90
23114;DHT22;11726;50.122;8.832;2023-05-10T01:50:26;13.70;99.90
23114;DHT22;11726;50.122;8.832;2023-05-10T01:52:57;13.70;99.90
23114;DHT22;11726;50.122;8.832;2023-05-10T01:55:28;13.60;99.90
23114;DHT22;11726;50.122;8.832;2023-05-10T01:58:07;13.70;99.90
23114;DHT22;11726;50.122;8.832;2023-05-10T02:00:35;13.70;99.90
23114;DHT22;11726;50.122;8.832;2023-05-10T02:03:05;13.60;99.90
23114;DHT22;11726;50.122;8.832;2023-05-10T02:05:34;13.60;99.90
23114;DHT22;11726;50.122;8.832;2023-05-10T02:08:02;13.70;99.90
23114;DHT22;11726;50.122;8.832;2023-05-10T02:10:35;13.60;99.90
23114;DHT22;11726;50.122;8.832;2023-05-10T02:13:03;13.60;99.90
23114;DHT22;11726;50.122;8.832;2023-05-10T02:15:32;13.60;99.90
23114;DHT22;11726;50.122;8.832;2023-05-10T02:18:00;13.60;99.90
23114;DHT22;11726;50.122;8.832;2023-05-10T02:20:29;13.60;99.90
23114;DHT22;11726;50.122;8.832;2023-05-10T02:22:57;13.60;99.90
23114;DHT22;11726;50.122;8.832;2023-05-10T02:25:25;13.60;99.90
23114;DHT22;11726;50.122;8.832;2023-05-10T02:27:55;13.60;99.90
23114;DHT22;11726;50.122;8.832;2023-05-10T02:30:22;13.60;99.90
23114;DHT22;11726;50.122;8.832;2023-05-10T02:32:51;13.60;99.90
23114;DHT22;11726;50.122;8.832;2023-05-10T02:35:19;13.50;99.90
23114;DHT22;11726;50.122;8.832;2023-05-10T02:37:47;13.50;99.90
23114;DHT22;11726;50.122;8.832;2023-05-10T02:40:15;13.60;99.90
23114;DHT22;11726;50.122;8.832;2023-05-10T02:42:44;13.60;99.90
23114;DHT22;11726;50.122;8.832;2023-05-10T02:45:13;13.50;99.90
23114;DHT22;11726;50.122;8.832;2023-05-10T02:47:40;13.50;99.90
23114;DHT22;11726;50.122;8.832;2023-05-10T02:50:08;13.50;99.90
23114;DHT22;11726;50.122;8.832;2023-05-10T02:52:49;13.50;99.90
23114;DHT22;11726;50.122;8.832;2023-05-10T02:55:21;13.50;99.90
23114;DHT22;11726;50.122;8.832;2023-05-10T02:57:52;13.50;99.90
23114;DHT22;11726;50.122;8.832;2023-05-10T03:00:20;13.50;99.90
23114;DHT22;11726;50.122;8.832;2023-05-10T03:02:47;13.40;99.90
23114;DHT22;11726;50.122;8.832;2023-05-10T03:05:14;13.50;99.90
23114;DHT22;11726;50.122;8.832;2023-05-10T03:07:41;13.50;99.90
23114;DHT22;11726;50.122;8.832;2023-05-10T03:10:08;13.40;99.90
23114;DHT22;11726;50.122;8.832;2023-05-10T03:12:49;13.40;99.90
23114;DHT22;11726;50.122;8.832;2023-05-10T03:15:31;13.50;99.90
23114;DHT22;11726;50.122;8.832;2023-05-10T03:20:38;13.40;99.90
23114;DHT22;11726;50.122;8.832;2023-05-10T03:25:46;13.40;99.90
23114;DHT22;11726;50.122;8.832;2023-05-10T03:28:16;13.40;99.90
23114;DHT22;11726;50.122;8.832;2023-05-10T03:30:43;13.40;99.90
23114;DHT22;11726;50.122;8.832;2023-05-10T03:33:10;13.40;99.90
23114;DHT22;11726;50.122;8.832;2023-05-10T03:35:39;13.40;99.90
23114;DHT22;11726;50.122;8.832;2023-05-10T03:38:05;13.50;99.90
23114;DHT22;11726;50.122;8.832;2023-05-10T03:40:32;13.50;99.90
23114;DHT22;11726;50.122;8.832;2023-05-10T03:42:59;13.40;99.90
23114;DHT22;11726;50.122;8.832;2023-05-10T03:45:26;13.50;99.90
23114;DHT22;11726;50.122;8.832;2023-05-10T03:47:53;13.40;99.90
23114;DHT22;11726;50.122;8.832;2023-05-10T03:50:20;13.40;99.90
23114;DHT22;11726;50.122;8.832;2023-05-10T03:52:47;13.40;99.90
23114;DHT22;11726;50.122;8.832;2023-05-10T03:55:14;13.40;99.90
23114;DHT22;11726;50.122;8.832;2023-05-10T03:57:40;13.50;99.90
23114;DHT22;11726;50.122;8.832;2023-05-10T04:00:07;13.50;99.90
23114;DHT22;11726;50.122;8.832;2023-05-10T04:02:34;13.50;99.90
23114;DHT22;11726;50.122;8.832;2023-05-10T04:05:01;13.50;99.90
23114;DHT22;11726;50.122;8.832;2023-05-10T04:07:28;13.50;99.90
23114;DHT22;11726;50.122;8.832;2023-05-10T04:09:55;13.40;99.90
23114;DHT22;11726;50.122;8.832;2023-05-10T04:12:22;13.30;99.90
23114;DHT22;11726;50.122;8.832;2023-05-10T04:14:48;13.30;99.90
23114;DHT22;11726;50.122;8.832;2023-05-10T04:17:15;13.40;99.90
23114;DHT22;11726;50.122;8.832;2023-05-10T04:19:42;13.40;99.90
23114;DHT22;11726;50.122;8.832;2023-05-10T04:22:08;13.40;99.90
23114;DHT22;11726;50.122;8.832;2023-05-10T04:24:35;13.40;99.90
23114;DHT22;11726;50.122;8.832;2023-05-10T04:27:01;13.50;99.90
23114;DHT22;11726;50.122;8.832;2023-05-10T04:29:28;13.40;99.90
23114;DHT22;11726;50.122;8.832;2023-05-10T04:31:58;13.40;99.90
23114;DHT22;11726;50.122;8.832;2023-05-10T04:34:25;13.40;99.90
23114;DHT22;11726;50.122;8.832;2023-05-10T04:36:51;13.50;99.90
23114;DHT22;11726;50.122;8.832;2023-05-10T04:39:18;13.50;99.90
23114;DHT22;11726;50.122;8.832;2023-05-10T04:41:45;13.60;99.90
23114;DHT22;11726;50.122;8.832;2023-05-10T04:44:11;13.60;99.90
23114;DHT22;11726;50.122;8.832;2023-05-10T04:46:38;13.60;99.90
23114;DHT22;11726;50.122;8.832;2023-05-10T04:49:05;13.60;99.90
23114;DHT22;11726;50.122;8.832;2023-05-10T04:51:32;13.70;99.90
23114;DHT22;11726;50.122;8.832;2023-05-10T04:53:58;13.60;99.90
23114;DHT22;11726;50.122;8.832;2023-05-10T04:56:32;13.60;99.90
23114;DHT22;11726;50.122;8.832;2023-05-10T04:58:59;13.70;99.90
23114;DHT22;11726;50.122;8.832;2023-05-10T05:01:25;13.80;99.90
23114;DHT22;11726;50.122;8.832;2023-05-10T05:03:52;13.80;99.90
23114;DHT22;11726;50.122;8.832;2023-05-10T05:06:19;13.80;99.90
23114;DHT22;11726;50.122;8.832;2023-05-10T05:08:47;13.90;99.90
23114;DHT22;11726;50.122;8.832;2023-05-10T05:11:16;13.90;99.90
23114;DHT22;11726;50.122;8.832;2023-05-10T05:13:43;13.90;99.90
23114;DHT22;11726;50.122;8.832;2023-05-10T05:16:10;13.90;99.90
23114;DHT22;11726;50.122;8.832;2023-05-10T05:18:37;14.00;99.90
23114;DHT22;11726;50.122;8.832;2023-05-10T05:21:14;13.90;99.90
23114;DHT22;11726;50.122;8.832;2023-05-10T05:23:41;13.90;99.90
23114;DHT22;11726;50.122;8.832;2023-05-10T05:26:08;14.00;99.90
23114;DHT22;11726;50.122;8.832;2023-05-10T05:28:35;14.00;99.90
23114;DHT22;11726;50.122;8.832;2023-05-10T05:31:04;14.00;99.90
23114;DHT22;11726;50.122;8.832;2023-05-10T05:33:32;13.90;99.90
23114;DHT22;11726;50.122;8.832;2023-05-10T05:36:01;13.90;99.90
23114;DHT22;11726;50.122;8.832;2023-05-10T05:38:28;14.10;99.90
23114;DHT22;11726;50.122;8.832;2023-05-10T05:40:54;14.00;99.90
23114;DHT22;11726;50.122;8.832;2023-05-10T05:43:21;14.00;99.90
23114;DHT22;11726;50.122;8.832;2023-05-10T05:45:48;14.00;99.90
23114;DHT22;11726;50.122;8.832;2023-05-10T05:48:14;14.10;99.90
23114;DHT22;11726;50.122;8.832;2023-05-10T05:50:41;14.10;99.90
23114;DHT22;11726;50.122;8.832;2023-05-10T05:53:08;14.10;99.90
23114;DHT22;11726;50.122;8.832;2023-05-10T05:55:35;14.10;99.90
23114;DHT22;11726;50.122;8.832;2023-05-10T05:58:02;14.10;99.90
23114;DHT22;11726;50.122;8.832;2023-05-10T06:00:29;14.10;99.90
23114;DHT22;11726;50.122;8.832;2023-05-10T06:02:56;14.10;99.90
23114;DHT22;11726;50.122;8.832;2023-05-10T06:05:22;14.10;99.90
23114;DHT22;11726;50.122;8.832;2023-05-10T06:07:49;14.10;99.90
23114;DHT22;11726;50.122;8.832;2023-05-10T06:10:16;14.10;99.90
23114;DHT22;11726;50.122;8.832;2023-05-10T06:12:42;14.10;99.90
23114;DHT22;11726;50.122;8.832;2023-05-10T06:15:09;14.10;99.90
23114;DHT22;11726;50.122;8.832;2023-05-10T06:17:36;14.20;99.90
23114;DHT22;11726;50.122;8.832;2023-05-10T06:20:03;14.10;99.90
23114;DHT22;11726;50.122;8.832;2023-05-10T06:22:30;14.10;99.90
23114;DHT22;11726;50.122;8.832;2023-05-10T06:24:57;14.10;99.90
23114;DHT22;11726;50.122;8.832;2023-05-10T06:27:23;14.20;99.90
23114;DHT22;11726;50.122;8.832;2023-05-10T06:29:50;14.10;99.90
23114;DHT22;11726;50.122;8.832;2023-05-10T06:32:27;14.10;99.90
23114;DHT22;11726;50.122;8.832;2023-05-10T06:34:54;14.20;99.90
23114;DHT22;11726;50.122;8.832;2023-05-10T06:37:21;14.20;99.90
23114;DHT22;11726;50.122;8.832;2023-05-10T06:39:48;14.30;99.90
23114;DHT22;11726;50.122;8.832;2023-05-10T06:42:14;14.40;99.90
23114;DHT22;11726;50.122;8.832;2023-05-10T06:44:41;14.40;99.90
23114;DHT22;11726;50.122;8.832;2023-05-10T06:47:08;14.40;99.90
23114;DHT22;11726;50.122;8.832;2023-05-10T06:49:35;14.40;99.90
23114;DHT22;11726;50.122;8.832;2023-05-10T06:52:01;14.50;99.90
23114;DHT22;11726;50.122;8.832;2023-05-10T06:54:28;14.50;99.90
23114;DHT22;11726;50.122;8.832;2023-05-10T06:56:55;14.60;99.90
23114;DHT22;11726;50.122;8.832;2023-05-10T06:59:21;14.60;99.90
23114;DHT22;11726;50.122;8.832;2023-05-10T07:01:48;14.70;99.90
23114;DHT22;11726;50.122;8.832;2023-05-10T07:04:15;14.70;99.90
23114;DHT22;11726;50.122;8.832;2023-05-10T07:06:41;14.70;99.90
23114;DHT22;11726;50.122;8.832;2023-05-10T07:09:08;14.70;99.90
23114;DHT22;11726;50.122;8.832;2023-05-10T07:11:35;14.60;99.90
23114;DHT22;11726;50.122;8.832;2023-05-10T07:14:02;14.60;99.90
23114;DHT22;11726;50.122;8.832;2023-05-10T07:16:29;14.60;99.90
23114;DHT22;11726;50.122;8.832;2023-05-10T07:18:56;14.60;99.90
23114;DHT22;11726;50.122;8.832;2023-05-10T07:21:22;14.70;99.90
23114;DHT22;11726;50.122;8.832;2023-05-10T07:23:55;14.70;99.90
23114;DHT22;11726;50.122;8.832;2023-05-10T07:26:21;14.70;99.90
23114;DHT22;11726;50.122;8.832;2023-05-10T07:28:48;14.70;99.90
23114;DHT22;11726;50.122;8.832;2023-05-10T07:31:15;14.80;99.90
23114;DHT22;11726;50.122;8.832;2023-05-10T07:33:41;14.70;99.90
23114;DHT22;11726;50.122;8.832;2023-05-10T07:36:08;14.70;99.90
23114;DHT22;11726;50.122;8.832;2023-05-10T07:38:35;14.80;99.90
23114;DHT22;11726;50.122;8.832;2023-05-10T07:41:03;14.90;99.90
23114;DHT22;11726;50.122;8.832;2023-05-10T07:43:30;14.80;99.90
23114;DHT22;11726;50.122;8.832;2023-05-10T07:45:57;14.90;99.90
23114;DHT22;11726;50.122;8.832;2023-05-10T07:48:24;15.00;99.90
23114;DHT22;11726;50.122;8.832;2023-05-10T07:50:50;15.10;99.90
23114;DHT22;11726;50.122;8.832;2023-05-10T07:53:17;15.20;99.90
23114;DHT22;11726;50.122;8.832;2023-05-10T07:55:50;15.20;99.90
23114;DHT22;11726;50.122;8.832;2023-05-10T07:58:17;15.20;99.90
23114;DHT22;11726;50.122;8.832;2023-05-10T08:00:44;15.30;99.90
23114;DHT22;11726;50.122;8.832;2023-05-10T08:03:11;15.20;99.90
23114;DHT22;11726;50.122;8.832;2023-05-10T08:05:38;15.30;99.90
23114;DHT22;11726;50.122;8.832;2023-05-10T08:08:04;15.30;99.90
23114;DHT22;11726;50.122;8.832;2023-05-10T08:10:31;15.30;99.90
23114;DHT22;11726;50.122;8.832;2023-05-10T08:12:58;15.40;99.90
23114;DHT22;11726;50.122;8.832;2023-05-10T08:15:25;15.50;99.90
23114;DHT22;11726;50.122;8.832;2023-05-10T08:17:52;15.50;99.90
23114;DHT22;11726;50.122;8.832;2023-05-10T08:20:19;15.60;99.90
23114;DHT22;11726;50.122;8.832;2023-05-10T08:22:46;15.60;99.90
23114;DHT22;11726;50.122;8.832;2023-05-10T08:25:15;15.70;99.90
23114;DHT22;11726;50.122;8.832;2023-05-10T08:27:42;15.80;99.90
23114;DHT22;11726;50.122;8.832;2023-05-10T08:30:09;15.90;99.90
23114;DHT22;11726;50.122;8.832;2023-05-10T08:32:36;16.00;99.90
23114;DHT22;11726;50.122;8.832;2023-05-10T08:35:04;16.20;99.90
23114;DHT22;11726;50.122;8.832;2023-05-10T08:37:31;16.20;99.90
23114;DHT22;11726;50.122;8.832;2023-05-10T08:39:59;16.40;99.90
23114;DHT22;11726;50.122;8.832;2023-05-10T08:42:28;16.40;99.90
23114;DHT22;11726;50.122;8.832;2023-05-10T08:44:57;16.50;99.90
23114;DHT22;11726;50.122;8.832;2023-05-10T08:47:25;16.60;99.90
23114;DHT22;11726;50.122;8.832;2023-05-10T08:49:52;16.60;99.90
23114;DHT22;11726;50.122;8.832;2023-05-10T08:52:19;16.60;99.90
23114;DHT22;11726;50.122;8.832;2023-05-10T08:54:47;16.90;99.90
23114;DHT22;11726;50.122;8.832;2023-05-10T08:57:14;16.80;99.90
23114;DHT22;11726;50.122;8.832;2023-05-10T08:59:41;17.10;99.90
23114;DHT22;11726;50.122;8.832;2023-05-10T09:02:10;17.30;99.90
23114;DHT22;11726;50.122;8.832;2023-05-10T09:04:38;17.40;99.90
23114;DHT22;11726;50.122;8.832;2023-05-10T09:07:06;17.40;99.90
23114;DHT22;11726;50.122;8.832;2023-05-10T09:09:33;17.10;99.90
23114;DHT22;11726;50.122;8.832;2023-05-10T09:12:01;17.10;99.90
23114;DHT22;11726;50.122;8.832;2023-05-10T09:14:27;17.00;99.90
23114;DHT22;11726;50.122;8.832;2023-05-10T09:16:54;16.90;99.90
23114;DHT22;11726;50.122;8.832;2023-05-10T09:19:21;17.00;99.90
23114;DHT22;11726;50.122;8.832;2023-05-10T09:21:48;16.90;99.90
23114;DHT22;11726;50.122;8.832;2023-05-10T09:24:15;17.00;99.90
23114;DHT22;11726;50.122;8.832;2023-05-10T09:26:46;17.00;99.90
23114;DHT22;11726;50.122;8.832;2023-05-10T09:29:16;17.10;99.90
23114;DHT22;11726;50.122;8.832;2023-05-10T09:31:51;16.90;99.90
23114;DHT22;11726;50.122;8.832;2023-05-10T09:34:19;17.10;99.90
23114;DHT22;11726;50.122;8.832;2023-05-10T09:36:54;17.10;99.90
23114;DHT22;11726;50.122;8.832;2023-05-10T09:39:33;17.10;99.90
23114;DHT22;11726;50.122;8.832;2023-05-10T09:42:03;17.20;99.90
23114;DHT22;11726;50.122;8.832;2023-05-10T09:44:31;17.20;99.90
23114;DHT22;11726;50.122;8.832;2023-05-10T09:47:00;17.10;99.90
23114;DHT22;11726;50.122;8.832;2023-05-10T09:49:27;17.00;99.90
23114;DHT22;11726;50.122;8.832;2023-05-10T09:52:04;16.90;99.90
23114;DHT22;11726;50.122;8.832;2023-05-10T09:54:33;16.90;99.90
23114;DHT22;11726;50.122;8.832;2023-05-10T09:57:00;16.90;99.90
23114;DHT22;11726;50.122;8.832;2023-05-10T09:59:28;16.90;99.90
23114;DHT22;11726;50.122;8.832;2023-05-10T10:01:56;16.90;99.90
23114;DHT22;11726;50.122;8.832;2023-05-10T10:04:23;17.20;99.90
23114;DHT22;11726;50.122;8.832;2023-05-10T10:07:01;17.30;99.90
23114;DHT22;11726;50.122;8.832;2023-05-10T10:09:29;17.10;99.90
23114;DHT22;11726;50.122;8.832;2023-05-10T10:11:56;16.90;99.90
23114;DHT22;11726;50.122;8.832;2023-05-10T10:14:23;16.70;99.90
23114;DHT22;11726;50.122;8.832;2023-05-10T10:16:52;16.50;99.90
23114;DHT22;11726;50.122;8.832;2023-05-10T10:19:34;16.40;99.90
23114;DHT22;11726;50.122;8.832;2023-05-10T10:22:02;16.30;99.90
23114;DHT22;11726;50.122;8.832;2023-05-10T10:24:29;16.40;99.90
23114;DHT22;11726;50.122;8.832;2023-05-10T10:27:42;16.30;99.90
23114;DHT22;11726;50.122;8.832;2023-05-10T10:36:18;16.50;99.90
23114;DHT22;11726;50.122;8.832;2023-05-10T10:49:33;15.70;99.90
23114;DHT22;11726;50.122;8.832;2023-05-10T11:03:10;16.20;99.90
23114;DHT22;11726;50.122;8.832;2023-05-10T11:05:50;16.20;99.90
23114;DHT22;11726;50.122;8.832;2023-05-10T11:08:29;16.30;99.90
23114;DHT22;11726;50.122;8.832;2023-05-10T11:15:56;16.40;99.90
23114;DHT22;11726;50.122;8.832;2023-05-10T11:18:25;16.10;99.90
23114;DHT22;11726;50.122;8.832;2023-05-10T11:21:02;16.10;99.90
23114;DHT22;11726;50.122;8.832;2023-05-10T11:23:31;16.10;99.90
23114;DHT22;11726;50.122;8.832;2023-05-10T11:25:59;16.00;99.90
23114;DHT22;11726;50.122;8.832;2023-05-10T11:28:27;16.00;99.90
23114;DHT22;11726;50.122;8.832;2023-05-10T11:30:54;16.00;99.90
23114;DHT22;11726;50.122;8.832;2023-05-10T11:33:21;15.90;99.90
23114;DHT22;11726;50.122;8.832;2023-05-10T11:35:48;15.90;99.90
23114;DHT22;11726;50.122;8.832;2023-05-10T11:38:14;16.00;99.90
23114;DHT22;11726;50.122;8.832;2023-05-10T11:40:41;16.20;99.90
23114;DHT22;11726;50.122;8.832;2023-05-10T11:43:09;16.30;99.90
23114;DHT22;11726;50.122;8.832;2023-05-10T11:45:37;16.30;99.90
23114;DHT22;11726;50.122;8.832;2023-05-10T11:48:05;16.60;99.90
23114;DHT22;11726;50.122;8.832;2023-05-10T11:50:32;16.80;99.90
23114;DHT22;11726;50.122;8.832;2023-05-10T11:52:59;16.90;99.90
23114;DHT22;11726;50.122;8.832;2023-05-10T11:55:25;17.10;99.90
23114;DHT22;11726;50.122;8.832;2023-05-10T11:57:55;17.00;99.90
23114;DHT22;11726;50.122;8.832;2023-05-10T12:00:26;17.10;99.90
23114;DHT22;11726;50.122;8.832;2023-05-10T12:02:52;17.10;99.90
23114;DHT22;11726;50.122;8.832;2023-05-10T12:05:19;17.00;99.90
23114;DHT22;11726;50.122;8.832;2023-05-10T12:07:46;17.10;99.90
23114;DHT22;11726;50.122;8.832;2023-05-10T12:10:13;17.00;99.90
23114;DHT22;11726;50.122;8.832;2023-05-10T12:12:46;17.00;99.90
23114;DHT22;11726;50.122;8.832;2023-05-10T12:15:17;17.00;99.90
23114;DHT22;11726;50.122;8.832;2023-05-10T12:17:46;17.00;99.90
23114;DHT22;11726;50.122;8.832;2023-05-10T12:20:18;17.20;99.90
23114;DHT22;11726;50.122;8.832;2023-05-10T12:22:49;17.20;99.90
23114;DHT22;11726;50.122;8.832;2023-05-10T12:25:17;17.50;99.90
23114;DHT22;11726;50.122;8.832;2023-05-10T12:28:07;17.50;99.90
23114;DHT22;11726;50.122;8.832;2023-05-10T12:30:36;17.70;99.90
23114;DHT22;11726;50.122;8.832;2023-05-10T12:33:08;17.70;99.90
23114;DHT22;11726;50.122;8.832;2023-05-10T12:35:44;17.50;99.90
23114;DHT22;11726;50.122;8.832;2023-05-10T12:38:28;17.30;99.90
23114;DHT22;11726;50.122;8.832;2023-05-10T12:41:02;17.30;99.90
23114;DHT22;11726;50.122;8.832;2023-05-10T12:43:29;17.40;99.90
23114;DHT22;11726;50.122;8.832;2023-05-10T12:45:56;17.40;99.90
23114;DHT22;11726;50.122;8.832;2023-05-10T12:48:23;17.40;99.90
23114;DHT22;11726;50.122;8.832;2023-05-10T12:50:51;17.60;99.90
23114;DHT22;11726;50.122;8.832;2023-05-10T12:53:17;18.00;99.90
23114;DHT22;11726;50.122;8.832;2023-05-10T12:55:44;18.40;99.90
23114;DHT22;11726;50.122;8.832;2023-05-10T12:58:11;18.60;99.90
23114;DHT22;11726;50.122;8.832;2023-05-10T13:00:46;19.00;99.90
23114;DHT22;11726;50.122;8.832;2023-05-10T13:03:13;19.20;99.90
23114;DHT22;11726;50.122;8.832;2023-05-10T13:05:41;19.20;99.90
23114;DHT22;11726;50.122;8.832;2023-05-10T13:08:08;19.50;99.90
23114;DHT22;11726;50.122;8.832;2023-05-10T13:10:34;19.60;99.90
23114;DHT22;11726;50.122;8.832;2023-05-10T13:13:01;19.70;99.90
23114;DHT22;11726;50.122;8.832;2023-05-10T13:15:28;19.40;99.90
23114;DHT22;11726;50.122;8.832;2023-05-10T13:17:54;19.60;99.90
23114;DHT22;11726;50.122;8.832;2023-05-10T13:20:21;20.10;99.90
23114;DHT22;11726;50.122;8.832;2023-05-10T13:22:48;19.80;99.90
23114;DHT22;11726;50.122;8.832;2023-05-10T13:25:16;20.10;99.90
23114;DHT22;11726;50.122;8.832;2023-05-10T13:27:43;20.30;99.90
23114;DHT22;11726;50.122;8.832;2023-05-10T13:30:10;20.10;99.90
23114;DHT22;11726;50.122;8.832;2023-05-10T13:32:37;19.80;99.90
23114;DHT22;11726;50.122;8.832;2023-05-10T13:35:05;19.20;99.90
23114;DHT22;11726;50.122;8.832;2023-05-10T13:37:32;19.20;99.90
23114;DHT22;11726;50.122;8.832;2023-05-10T13:40:01;18.90;99.90
23114;DHT22;11726;50.122;8.832;2023-05-10T13:42:28;18.70;99.90
23114;DHT22;11726;50.122;8.832;2023-05-10T13:44:55;18.70;99.90
23114;DHT22;11726;50.122;8.832;2023-05-10T13:47:22;18.60;99.90
23114;DHT22;11726;50.122;8.832;2023-05-10T13:49:48;18.60;99.90
23114;DHT22;11726;50.122;8.832;2023-05-10T13:52:15;18.50;99.90
23114;DHT22;11726;50.122;8.832;2023-05-10T13:54:42;18.50;99.90
23114;DHT22;11726;50.122;8.832;2023-05-10T13:57:08;18.60;99.90
23114;DHT22;11726;50.122;8.832;2023-05-10T13:59:35;18.90;99.90
23114;DHT22;11726;50.122;8.832;2023-05-10T14:02:02;19.20;99.90
23114;DHT22;11726;50.122;8.832;2023-05-10T14:04:29;19.50;99.90
23114;DHT22;11726;50.122;8.832;2023-05-10T14:06:56;19.70;99.90
23114;DHT22;11726;50.122;8.832;2023-05-10T14:09:23;19.80;99.90
23114;DHT22;11726;50.122;8.832;2023-05-10T14:11:49;20.10;99.90
23114;DHT22;11726;50.122;8.832;2023-05-10T14:14:16;20.10;99.90
23114;DHT22;11726;50.122;8.832;2023-05-10T14:16:44;20.40;99.90
23114;DHT22;11726;50.122;8.832;2023-05-10T14:19:11;20.60;99.90
23114;DHT22;11726;50.122;8.832;2023-05-10T14:21:38;20.40;99.10
23114;DHT22;11726;50.122;8.832;2023-05-10T14:24:05;20.50;99.90
23114;DHT22;11726;50.122;8.832;2023-05-10T14:26:33;20.50;99.50
23114;DHT22;11726;50.122;8.832;2023-05-10T14:29:00;20.50;99.90
23114;DHT22;11726;50.122;8.832;2023-05-10T14:31:27;20.40;99.90
23114;DHT22;11726;50.122;8.832;2023-05-10T14:33:56;20.10;99.90
23114;DHT22;11726;50.122;8.832;2023-05-10T14:36:24;20.00;99.60
23114;DHT22;11726;50.122;8.832;2023-05-10T14:38:50;19.90;99.80
23114;DHT22;11726;50.122;8.832;2023-05-10T14:41:17;19.80;99.60
23114;DHT22;11726;50.122;8.832;2023-05-10T14:43:44;19.80;98.90
23114;DHT22;11726;50.122;8.832;2023-05-10T14:46:11;19.60;99.50
23114;DHT22;11726;50.122;8.832;2023-05-10T14:48:38;19.80;99.90
23114;DHT22;11726;50.122;8.832;2023-05-10T14:51:04;19.80;99.90
23114;DHT22;11726;50.122;8.832;2023-05-10T14:53:31;19.80;99.70
23114;DHT22;11726;50.122;8.832;2023-05-10T14:55:58;19.70;99.90
23114;DHT22;11726;50.122;8.832;2023-05-10T14:58:27;19.50;99.90
23114;DHT22;11726;50.122;8.832;2023-05-10T15:00:54;19.70;99.90
23114;DHT22;11726;50.122;8.832;2023-05-10T15:03:21;20.00;99.90
23114;DHT22;11726;50.122;8.832;2023-05-10T15:05:49;20.10;99.50
23114;DHT22;11726;50.122;8.832;2023-05-10T15:08:16;20.60;99.90
23114;DHT22;11726;50.122;8.832;2023-05-10T15:10:42;20.80;99.90
23114;DHT22;11726;50.122;8.832;2023-05-10T15:13:09;20.80;99.90
23114;DHT22;11726;50.122;8.832;2023-05-10T15:15:36;20.60;99.00
23114;DHT22;11726;50.122;8.832;2023-05-10T15:18:03;20.50;98.10
23114;DHT22;11726;50.122;8.832;2023-05-10T15:20:31;20.60;99.90
23114;DHT22;11726;50.122;8.832;2023-05-10T15:22:58;20.50;99.30
23114;DHT22;11726;50.122;8.832;2023-05-10T15:25:24;20.30;97.50
23114;DHT22;11726;50.122;8.832;2023-05-10T15:27:51;20.30;97.30
23114;DHT22;11726;50.122;8.832;2023-05-10T15:30:18;20.30;97.70
23114;DHT22;11726;50.122;8.832;2023-05-10T15:32:45;20.30;98.70
23114;DHT22;11726;50.122;8.832;2023-05-10T15:35:11;20.20;96.40
23114;DHT22;11726;50.122;8.832;2023-05-10T15:37:38;20.10;98.90
23114;DHT22;11726;50.122;8.832;2023-05-10T15:40:05;20.20;98.20
23114;DHT22;11726;50.122;8.832;2023-05-10T15:42:33;20.10;99.90
23114;DHT22;11726;50.122;8.832;2023-05-10T15:44:59;20.10;99.60
23114;DHT22;11726;50.122;8.832;2023-05-10T15:47:26;19.90;99.70
23114;DHT22;11726;50.122;8.832;2023-05-10T15:49:56;19.80;99.90
23114;DHT22;11726;50.122;8.832;2023-05-10T15:52:22;19.50;99.90
23114;DHT22;11726;50.122;8.832;2023-05-10T15:54:50;19.40;99.90
23114;DHT22;11726;50.122;8.832;2023-05-10T15:57:17;19.30;99.90
23114;DHT22;11726;50.122;8.832;2023-05-10T15:59:43;19.30;99.90
23114;DHT22;11726;50.122;8.832;2023-05-10T16:02:11;19.20;99.90
23114;DHT22;11726;50.122;8.832;2023-05-10T16:04:38;19.20;99.90
23114;DHT22;11726;50.122;8.832;2023-05-10T16:07:04;19.00;99.90
23114;DHT22;11726;50.122;8.832;2023-05-10T16:09:31;19.10;99.90
23114;DHT22;11726;50.122;8.832;2023-05-10T16:11:57;19.20;99.90
23114;DHT22;11726;50.122;8.832;2023-05-10T16:14:24;19.10;99.90
23114;DHT22;11726;50.122;8.832;2023-05-10T16:16:51;19.10;99.90
23114;DHT22;11726;50.122;8.832;2023-05-10T16:19:18;18.90;99.90
23114;DHT22;11726;50.122;8.832;2023-05-10T16:21:45;19.00;99.90